createdAt,value
2017-11-15T00:01:02.009Z,7.14
2017-11-15T00:02:04.496Z,7.23
2017-11-15T00:03:06.984Z,7.26
2017-11-15T00:04:09.473Z,7.17
2017-11-15T00:05:11.953Z,7.11
2017-11-15T00:06:14.412Z,7.18
2017-11-15T00:07:16.909Z,7.18
2017-11-15T00:08:19.379Z,7.19
2017-11-15T00:09:21.857Z,7.15
2017-11-15T00:10:24.327Z,6.99
2017-11-15T00:11:26.788Z,7.01
2017-11-15T00:12:29.288Z,7.01
2017-11-15T00:13:31.757Z,7.10
2017-11-15T00:14:34.228Z,7.10
2017-11-15T00:15:36.687Z,7.19
2017-11-15T00:16:39.155Z,7.17
2017-11-15T00:17:41.666Z,7.06
2017-11-15T00:18:44.138Z,7.03
2017-11-15T00:19:46.603Z,6.93
2017-11-15T00:20:49.063Z,7.01
2017-11-15T00:21:51.523Z,7.00
2017-11-15T00:22:54.042Z,7.02
2017-11-15T00:23:56.516Z,7.09
2017-11-15T00:24:58.996Z,7.05
2017-11-15T00:26:01.488Z,7.06
2017-11-15T00:27:03.967Z,7.08
2017-11-15T00:28:06.483Z,6.94
2017-11-15T00:29:08.958Z,6.83
2017-11-15T00:30:11.446Z,6.98
2017-11-15T00:31:13.929Z,6.96
2017-11-15T00:32:16.443Z,6.85
2017-11-15T00:33:18.933Z,6.80
2017-11-15T00:34:21.396Z,6.74
2017-11-15T00:35:23.878Z,6.56
2017-11-15T00:36:26.359Z,6.66
2017-11-15T00:37:28.827Z,6.74
2017-11-15T00:38:31.330Z,6.82
2017-11-15T00:39:33.827Z,6.79
2017-11-15T00:40:36.287Z,6.75
2017-11-15T00:41:38.752Z,6.81
2017-11-15T00:42:41.219Z,6.73
2017-11-15T00:43:43.722Z,6.72
2017-11-15T00:44:46.212Z,6.75
2017-11-15T00:45:48.675Z,6.62
2017-11-15T00:46:51.149Z,6.70
2017-11-15T00:47:53.629Z,6.66
2017-11-15T00:48:56.127Z,6.74
2017-11-15T00:49:59.159Z,6.83
2017-11-15T00:51:01.633Z,6.82
2017-11-15T00:52:04.109Z,6.76
2017-11-15T00:53:06.595Z,6.63
2017-11-15T00:54:09.090Z,6.69
2017-11-15T00:55:11.572Z,6.67
2017-11-15T00:56:14.050Z,6.65
2017-11-15T00:57:16.512Z,6.74
2017-11-15T00:58:18.980Z,6.80
2017-11-15T00:59:21.444Z,6.74
2017-11-15T01:00:23.928Z,6.69
2017-11-15T01:01:26.401Z,6.75
2017-11-15T01:02:28.863Z,6.68
2017-11-15T01:03:31.332Z,6.65
2017-11-15T01:04:33.819Z,6.60
2017-11-15T01:05:36.302Z,6.50
2017-11-15T01:06:38.779Z,6.59
2017-11-15T01:07:41.263Z,6.56
2017-11-15T01:08:43.727Z,6.67
2017-11-15T01:09:46.196Z,6.61
2017-11-15T01:10:48.663Z,6.57
2017-11-15T01:11:51.144Z,6.68
2017-11-15T01:12:53.619Z,6.74
2017-11-15T01:13:56.081Z,6.74
2017-11-15T01:14:58.548Z,6.71
2017-11-15T01:16:01.030Z,6.69
2017-11-15T01:17:03.497Z,6.58
2017-11-15T01:18:05.977Z,6.63
2017-11-15T01:19:08.456Z,6.53
2017-11-15T01:20:10.926Z,6.56
2017-11-15T01:21:13.421Z,6.53
2017-11-15T01:22:15.893Z,6.57
2017-11-15T01:23:18.374Z,6.49
2017-11-15T01:24:20.855Z,6.48
2017-11-15T01:25:23.342Z,6.50
2017-11-15T01:26:25.818Z,6.62
2017-11-15T01:27:28.290Z,6.55
2017-11-15T01:28:30.769Z,6.62
2017-11-15T01:29:33.241Z,6.61
2017-11-15T01:30:35.711Z,6.72
2017-11-15T01:31:38.203Z,6.63
2017-11-15T01:32:40.677Z,6.58
2017-11-15T01:33:43.162Z,6.56
2017-11-15T01:34:45.658Z,6.60
2017-11-15T01:35:48.128Z,6.57
2017-11-15T01:36:50.611Z,6.56
2017-11-15T01:37:53.098Z,6.59
2017-11-15T01:38:55.586Z,6.59
2017-11-15T01:39:58.391Z,6.65
2017-11-15T01:41:00.866Z,6.59
2017-11-15T01:42:03.330Z,6.60
2017-11-15T01:43:05.810Z,6.55
2017-11-15T01:44:08.298Z,6.49
2017-11-15T01:45:10.761Z,6.50
2017-11-15T01:46:13.246Z,6.56
2017-11-15T01:47:15.712Z,6.56
2017-11-15T01:48:18.215Z,6.59
2017-11-15T01:49:20.685Z,6.52
2017-11-15T01:50:23.169Z,6.55
2017-11-15T01:51:25.645Z,6.59
2017-11-15T01:52:28.121Z,6.56
2017-11-15T01:53:30.579Z,6.52
2017-11-15T01:54:33.062Z,6.64
2017-11-15T01:55:35.542Z,6.68
2017-11-15T01:56:38.012Z,6.64
2017-11-15T01:57:40.478Z,6.65
2017-11-15T01:58:42.954Z,6.68
2017-11-15T01:59:45.441Z,6.60
2017-11-15T02:00:59.648Z,6.65
2017-11-15T02:02:02.130Z,6.76
2017-11-15T02:03:04.592Z,6.73
2017-11-15T02:04:07.080Z,6.63
2017-11-15T02:05:09.551Z,6.64
2017-11-15T02:06:12.036Z,6.64
2017-11-15T02:07:14.505Z,6.63
2017-11-15T02:08:16.983Z,6.63
2017-11-15T02:09:19.456Z,6.67
2017-11-15T02:10:21.918Z,6.53
2017-11-15T02:11:24.398Z,6.48
2017-11-15T02:12:26.878Z,6.56
2017-11-15T02:13:29.339Z,6.52
2017-11-15T02:14:31.803Z,6.53
2017-11-15T02:15:34.269Z,6.62
2017-11-15T02:16:36.742Z,6.56
2017-11-15T02:17:39.204Z,6.46
2017-11-15T02:18:41.676Z,6.54
2017-11-15T02:19:44.165Z,6.62
2017-11-15T02:20:46.643Z,6.65
2017-11-15T02:21:49.126Z,6.66
2017-11-15T02:22:51.608Z,6.56
2017-11-15T02:23:54.081Z,6.61
2017-11-15T02:24:56.564Z,6.66
2017-11-15T02:25:59.048Z,6.68
2017-11-15T02:27:01.527Z,6.66
2017-11-15T02:28:03.997Z,6.64
2017-11-15T02:29:06.492Z,6.68
2017-11-15T02:30:08.965Z,6.68
2017-11-15T02:31:11.473Z,6.67
2017-11-15T02:32:13.964Z,6.66
2017-11-15T02:33:16.454Z,6.58
2017-11-15T02:34:18.915Z,6.54
2017-11-15T02:35:21.378Z,6.60
2017-11-15T02:36:23.853Z,6.56
2017-11-15T02:37:26.344Z,6.53
2017-11-15T02:38:28.829Z,6.56
2017-11-15T02:39:31.295Z,6.56
2017-11-15T02:40:33.786Z,6.52
2017-11-15T02:41:36.259Z,6.55
2017-11-15T02:42:38.739Z,6.53
2017-11-15T02:43:41.222Z,6.55
2017-11-15T02:44:43.692Z,6.63
2017-11-15T02:45:46.170Z,6.58
2017-11-15T02:46:48.636Z,6.58
2017-11-15T02:47:51.104Z,6.65
2017-11-15T02:48:53.581Z,6.69
2017-11-15T02:49:56.040Z,6.57
2017-11-15T02:50:58.500Z,6.62
2017-11-15T02:52:00.998Z,6.58
2017-11-15T02:53:03.464Z,6.60
2017-11-15T02:54:05.965Z,6.63
2017-11-15T02:55:08.439Z,6.64
2017-11-15T02:56:10.919Z,6.61
2017-11-15T02:57:13.395Z,6.59
2017-11-15T02:58:15.887Z,6.61
2017-11-15T02:59:18.349Z,6.64
2017-11-15T03:00:20.825Z,6.66
2017-11-15T03:01:23.306Z,6.69
2017-11-15T03:02:25.771Z,6.60
2017-11-15T03:03:28.232Z,6.63
2017-11-15T03:04:30.717Z,6.61
2017-11-15T03:05:33.179Z,6.63
2017-11-15T03:06:35.644Z,6.61
2017-11-15T03:07:38.109Z,6.73
2017-11-15T03:08:40.585Z,6.74
2017-11-15T03:09:43.054Z,6.74
2017-11-15T03:10:45.516Z,6.76
2017-11-15T03:11:48.027Z,6.70
2017-11-15T03:12:50.507Z,6.60
2017-11-15T03:13:52.990Z,6.59
2017-11-15T03:14:55.473Z,6.72
2017-11-15T03:15:57.947Z,6.74
2017-11-15T03:17:00.418Z,6.80
2017-11-15T03:18:02.898Z,6.68
2017-11-15T03:19:05.378Z,6.74
2017-11-15T03:20:07.858Z,6.64
2017-11-15T03:21:15.070Z,6.71
2017-11-15T03:22:17.547Z,6.78
2017-11-15T03:23:20.020Z,6.74
2017-11-15T03:24:22.489Z,6.80
2017-11-15T03:25:24.952Z,6.83
2017-11-15T03:26:27.576Z,6.81
2017-11-15T03:27:30.061Z,6.80
2017-11-15T03:28:32.538Z,6.82
2017-11-15T03:29:35.008Z,6.78
2017-11-15T03:30:37.505Z,6.68
2017-11-15T03:31:39.993Z,6.70
2017-11-15T03:32:42.540Z,6.68
2017-11-15T03:33:45.015Z,6.73
2017-11-15T03:34:47.486Z,6.71
2017-11-15T03:35:49.952Z,6.73
2017-11-15T03:36:52.416Z,6.72
2017-11-15T03:37:54.883Z,6.80
2017-11-15T03:38:57.358Z,6.66
2017-11-15T03:39:59.841Z,6.66
2017-11-15T03:41:02.335Z,6.63
2017-11-15T03:42:04.820Z,6.69
2017-11-15T03:43:07.301Z,6.74
2017-11-15T03:44:09.768Z,6.81
2017-11-15T03:45:12.256Z,6.83
2017-11-15T03:46:14.746Z,6.72
2017-11-15T03:47:17.211Z,6.85
2017-11-15T03:48:19.694Z,6.79
2017-11-15T03:49:22.178Z,6.76
2017-11-15T03:50:24.645Z,6.78
2017-11-15T03:51:27.108Z,6.73
2017-11-15T03:52:29.568Z,6.75
2017-11-15T03:53:32.050Z,6.70
2017-11-15T03:54:34.529Z,6.54
2017-11-15T03:55:37.019Z,6.66
2017-11-15T03:56:39.510Z,6.68
2017-11-15T03:57:41.986Z,6.69
2017-11-15T03:58:44.452Z,6.74
2017-11-15T03:59:46.925Z,6.65
2017-11-15T04:00:49.424Z,6.65
2017-11-15T04:01:51.902Z,6.58
2017-11-15T04:02:54.381Z,6.64
2017-11-15T04:03:56.844Z,6.71
2017-11-15T04:04:59.313Z,6.77
2017-11-15T04:06:01.806Z,6.71
2017-11-15T04:07:04.302Z,6.78
2017-11-15T04:08:06.764Z,6.70
2017-11-15T04:09:09.252Z,6.83
2017-11-15T04:10:11.721Z,6.85
2017-11-15T04:11:14.214Z,6.87
2017-11-15T04:12:16.680Z,6.88
2017-11-15T04:13:19.160Z,6.84
2017-11-15T04:14:21.633Z,6.78
2017-11-15T04:15:24.105Z,6.79
2017-11-15T04:16:26.611Z,6.82
2017-11-15T04:17:29.076Z,6.85
2017-11-15T04:18:31.557Z,6.84
2017-11-15T04:19:34.038Z,6.73
2017-11-15T04:20:36.503Z,6.77
2017-11-15T04:21:39.007Z,6.88
2017-11-15T04:22:41.469Z,6.88
2017-11-15T04:23:43.941Z,6.91
2017-11-15T04:24:46.443Z,6.87
2017-11-15T04:25:48.928Z,6.96
2017-11-15T04:26:51.432Z,6.89
2017-11-15T04:27:53.914Z,6.91
2017-11-15T04:28:56.408Z,6.85
2017-11-15T04:29:59.681Z,6.83
2017-11-15T04:31:02.162Z,6.95
2017-11-15T04:32:04.648Z,6.93
2017-11-15T04:33:07.120Z,7.01
2017-11-15T04:34:09.579Z,6.92
2017-11-15T04:35:12.047Z,6.90
2017-11-15T04:36:14.510Z,6.92
2017-11-15T04:37:17.000Z,6.95
2017-11-15T04:38:19.460Z,6.91
2017-11-15T04:39:21.939Z,6.89
2017-11-15T04:40:24.416Z,6.91
2017-11-15T04:41:26.903Z,6.85
2017-11-15T04:42:29.401Z,6.85
2017-11-15T04:43:31.881Z,6.90
2017-11-15T04:44:34.363Z,6.90
2017-11-15T04:45:39.994Z,6.83
2017-11-15T04:46:42.456Z,6.84
2017-11-15T04:47:44.958Z,6.75
2017-11-15T04:48:47.440Z,6.80
2017-11-15T04:49:49.910Z,6.87
2017-11-15T04:50:52.393Z,6.80
2017-11-15T04:51:54.867Z,6.91
2017-11-15T04:52:57.424Z,6.91
2017-11-15T04:53:59.899Z,6.86
2017-11-15T04:55:02.364Z,6.84
2017-11-15T04:56:04.845Z,6.91
2017-11-15T04:57:07.308Z,6.89
2017-11-15T04:58:09.810Z,6.93
2017-11-15T04:59:12.287Z,6.99
2017-11-15T05:00:14.761Z,6.99
2017-11-15T05:01:17.251Z,6.99
2017-11-15T05:02:19.711Z,6.86
2017-11-15T05:03:22.211Z,6.93
2017-11-15T05:04:25.461Z,6.88
2017-11-15T05:05:28.136Z,6.91
2017-11-15T05:06:30.628Z,6.84
2017-11-15T05:07:33.129Z,6.83
2017-11-15T05:08:36.171Z,6.94
2017-11-15T05:09:38.696Z,6.91
2017-11-15T05:10:41.195Z,6.88
2017-11-15T05:11:43.669Z,6.86
2017-11-15T05:12:46.148Z,6.95
2017-11-15T05:13:48.650Z,6.98
2017-11-15T05:14:51.107Z,7.05
2017-11-15T05:15:53.585Z,6.98
2017-11-15T05:16:56.338Z,6.99
2017-11-15T05:17:58.804Z,6.93
2017-11-15T05:19:01.321Z,6.87
2017-11-15T05:20:03.788Z,6.94
2017-11-15T05:21:06.261Z,6.97
2017-11-15T05:22:08.769Z,6.92
2017-11-15T05:23:11.257Z,6.93
2017-11-15T05:24:13.769Z,7.00
2017-11-15T05:25:16.247Z,7.03
2017-11-15T05:26:18.717Z,7.00
2017-11-15T05:27:21.189Z,7.02
2017-11-15T05:28:23.671Z,7.03
2017-11-15T05:29:26.190Z,6.98
2017-11-15T05:30:28.655Z,6.94
2017-11-15T05:31:31.135Z,6.88
2017-11-15T05:32:33.606Z,6.86
2017-11-15T05:33:36.068Z,6.90
2017-11-15T05:34:38.530Z,6.89
2017-11-15T05:35:41.001Z,7.03
2017-11-15T05:36:43.489Z,7.03
2017-11-15T05:37:45.970Z,6.99
2017-11-15T05:38:48.450Z,7.04
2017-11-15T05:39:50.932Z,6.99
2017-11-15T05:40:53.415Z,6.99
2017-11-15T05:41:55.901Z,6.93
2017-11-15T05:42:58.380Z,7.02
2017-11-15T05:44:00.859Z,7.00
2017-11-15T05:45:03.343Z,7.02
2017-11-15T05:46:05.822Z,6.94
2017-11-15T05:47:08.287Z,6.92
2017-11-15T05:48:10.772Z,6.94
2017-11-15T05:49:13.244Z,6.95
2017-11-15T05:50:15.714Z,6.95
2017-11-15T05:51:18.209Z,6.97
2017-11-15T05:52:20.711Z,6.95
2017-11-15T05:53:23.205Z,6.87
2017-11-15T05:54:25.680Z,6.99
2017-11-15T05:55:28.140Z,7.00
2017-11-15T05:56:30.644Z,6.99
2017-11-15T05:57:33.125Z,6.97
2017-11-15T05:58:35.639Z,6.94
2017-11-15T05:59:38.110Z,6.95
2017-11-15T06:00:40.579Z,7.00
2017-11-15T06:01:43.042Z,7.00
2017-11-15T06:02:45.519Z,7.04
2017-11-15T06:03:48.006Z,7.04
2017-11-15T06:04:50.490Z,7.03
2017-11-15T06:05:52.951Z,7.04
2017-11-15T06:06:55.439Z,6.98
2017-11-15T06:07:57.913Z,6.97
2017-11-15T06:09:00.386Z,6.93
2017-11-15T06:10:02.887Z,6.88
2017-11-15T06:11:05.380Z,6.94
2017-11-15T06:12:07.853Z,6.94
2017-11-15T06:13:10.330Z,6.91
2017-11-15T06:14:12.873Z,6.85
2017-11-15T06:15:15.425Z,6.96
2017-11-15T06:16:17.825Z,6.93
2017-11-15T06:17:20.289Z,6.92
2017-11-15T06:18:22.812Z,6.93
2017-11-15T06:19:25.261Z,6.94
2017-11-15T06:20:27.743Z,6.93
2017-11-15T06:21:30.223Z,6.86
2017-11-15T06:22:32.830Z,6.90
2017-11-15T06:23:35.329Z,6.91
2017-11-15T06:24:37.767Z,6.95
2017-11-15T06:25:40.213Z,6.94
2017-11-15T06:26:42.781Z,6.93
2017-11-15T06:27:45.237Z,6.96
2017-11-15T06:28:47.755Z,7.00
2017-11-15T06:29:50.309Z,6.99
2017-11-15T06:30:52.838Z,6.88
2017-11-15T06:31:55.316Z,6.94
2017-11-15T06:32:57.710Z,7.01
2017-11-15T06:34:00.179Z,6.99
2017-11-15T06:35:02.657Z,7.00
2017-11-15T06:36:05.212Z,7.00
2017-11-15T06:37:07.739Z,7.11
2017-11-15T06:38:10.141Z,7.02
2017-11-15T06:39:12.612Z,6.95
2017-11-15T06:40:15.077Z,6.98
2017-11-15T06:41:17.556Z,7.01
2017-11-15T06:42:20.046Z,6.94
2017-11-15T06:43:22.526Z,6.91
2017-11-15T06:44:24.998Z,7.04
2017-11-15T06:45:27.482Z,6.95
2017-11-15T06:46:29.982Z,7.03
2017-11-15T06:47:32.469Z,6.99
2017-11-15T06:48:34.951Z,6.97
2017-11-15T06:49:37.429Z,7.03
2017-11-15T06:50:39.914Z,7.09
2017-11-15T06:51:42.396Z,7.06
2017-11-15T06:52:44.911Z,7.04
2017-11-15T06:53:47.377Z,7.13
2017-11-15T06:54:49.856Z,7.16
2017-11-15T06:55:52.324Z,7.13
2017-11-15T06:56:54.808Z,7.12
2017-11-15T06:57:57.300Z,7.10
2017-11-15T06:58:59.764Z,7.07
2017-11-15T07:00:02.238Z,7.12
2017-11-15T07:01:04.713Z,7.11
2017-11-15T07:02:07.196Z,7.03
2017-11-15T07:03:09.675Z,7.07
2017-11-15T07:04:12.149Z,7.12
2017-11-15T07:05:14.615Z,7.18
2017-11-15T07:06:17.085Z,7.17
2017-11-15T07:07:19.600Z,7.18
2017-11-15T07:08:22.084Z,7.09
2017-11-15T07:09:24.551Z,7.15
2017-11-15T07:10:27.033Z,7.15
2017-11-15T07:11:29.578Z,7.29
2017-11-15T07:12:32.051Z,7.07
2017-11-15T07:13:34.529Z,7.21
2017-11-15T07:14:36.995Z,7.19
2017-11-15T07:15:39.475Z,7.15
2017-11-15T07:16:41.949Z,7.15
2017-11-15T07:17:44.426Z,7.03
2017-11-15T07:18:46.953Z,7.13
2017-11-15T07:19:49.465Z,7.07
2017-11-15T07:20:51.971Z,7.12
2017-11-15T07:21:54.454Z,7.13
2017-11-15T07:22:56.985Z,7.09
2017-11-15T07:23:59.493Z,7.04
2017-11-15T07:25:02.011Z,7.08
2017-11-15T07:26:04.475Z,7.08
2017-11-15T07:27:06.959Z,7.12
2017-11-15T07:28:09.440Z,7.18
2017-11-15T07:29:11.927Z,7.19
2017-11-15T07:30:14.404Z,7.10
2017-11-15T07:31:16.885Z,7.15
2017-11-15T07:32:19.367Z,7.08
2017-11-15T07:33:21.847Z,7.16
2017-11-15T07:34:24.335Z,7.15
2017-11-15T07:35:26.862Z,7.17
2017-11-15T07:36:29.343Z,7.25
2017-11-15T07:37:31.831Z,7.23
2017-11-15T07:38:34.292Z,7.17
2017-11-15T07:39:36.761Z,7.25
2017-11-15T07:40:39.255Z,7.26
2017-11-15T07:41:41.737Z,7.24
2017-11-15T07:42:44.237Z,7.28
2017-11-15T07:43:46.753Z,7.34
2017-11-15T07:44:49.235Z,7.36
2017-11-15T07:45:51.701Z,7.31
2017-11-15T07:46:54.201Z,7.29
2017-11-15T07:47:56.685Z,7.31
2017-11-15T07:48:59.176Z,7.37
2017-11-15T07:50:01.645Z,7.39
2017-11-15T07:51:04.121Z,7.50
2017-11-15T07:52:06.592Z,7.64
2017-11-15T07:53:09.077Z,7.59
2017-11-15T07:54:11.575Z,7.58
2017-11-15T07:55:14.062Z,7.57
2017-11-15T07:56:16.545Z,7.70
2017-11-15T07:57:19.035Z,7.66
2017-11-15T07:58:21.510Z,7.70
2017-11-15T07:59:24.010Z,7.71
2017-11-15T08:00:26.494Z,7.64
2017-11-15T08:01:28.959Z,7.62
2017-11-15T08:02:31.421Z,7.64
2017-11-15T08:03:33.880Z,7.68
2017-11-15T08:04:36.368Z,7.68
2017-11-15T08:05:38.847Z,7.73
2017-11-15T08:06:41.372Z,7.83
2017-11-15T08:07:43.836Z,7.80
2017-11-15T08:08:46.305Z,7.90
2017-11-15T08:09:48.798Z,7.96
2017-11-15T08:10:51.285Z,7.93
2017-11-15T08:11:53.772Z,8.01
2017-11-15T08:12:56.238Z,8.02
2017-11-15T08:13:58.712Z,8.10
2017-11-15T08:15:01.231Z,8.06
2017-11-15T08:16:04.089Z,8.02
2017-11-15T08:17:06.539Z,8.01
2017-11-15T08:18:09.019Z,8.06
2017-11-15T08:19:11.520Z,8.11
2017-11-15T08:20:14.012Z,8.13
2017-11-15T08:21:16.503Z,8.18
2017-11-15T08:22:18.992Z,8.16
2017-11-15T08:23:21.757Z,8.14
2017-11-15T08:24:24.238Z,8.16
2017-11-15T08:25:26.768Z,8.08
2017-11-15T08:26:29.246Z,8.09
2017-11-15T08:27:31.741Z,8.07
2017-11-15T08:28:34.204Z,8.09
2017-11-15T08:29:36.698Z,8.14
2017-11-15T08:30:39.206Z,8.19
2017-11-15T08:31:41.697Z,8.15
2017-11-15T08:32:44.160Z,8.13
2017-11-15T08:33:46.631Z,8.17
2017-11-15T08:34:49.112Z,8.13
2017-11-15T08:35:51.617Z,8.14
2017-11-15T08:36:54.099Z,8.10
2017-11-15T08:37:56.568Z,8.13
2017-11-15T08:38:59.028Z,8.11
2017-11-15T08:40:01.507Z,8.17
2017-11-15T08:41:03.998Z,8.17
2017-11-15T08:42:06.494Z,8.22
2017-11-15T08:43:08.956Z,8.15
2017-11-15T08:44:11.442Z,8.19
2017-11-15T08:45:13.946Z,8.18
2017-11-15T08:46:16.458Z,8.26
2017-11-15T08:47:18.939Z,8.31
2017-11-15T08:48:21.421Z,8.27
2017-11-15T08:49:23.902Z,8.30
2017-11-15T08:50:26.377Z,8.23
2017-11-15T08:51:28.873Z,8.29
2017-11-15T08:52:31.362Z,8.39
2017-11-15T08:53:33.836Z,8.31
2017-11-15T08:54:36.318Z,8.35
2017-11-15T08:55:38.798Z,8.20
2017-11-15T08:56:41.311Z,8.36
2017-11-15T08:57:43.791Z,8.40
2017-11-15T08:58:46.261Z,8.46
2017-11-15T08:59:48.729Z,8.43
2017-11-15T09:00:51.219Z,8.51
2017-11-15T09:01:53.753Z,8.40
2017-11-15T09:02:56.239Z,8.38
2017-11-15T09:03:58.718Z,8.36
2017-11-15T09:05:01.224Z,8.32
2017-11-15T09:06:03.703Z,8.35
2017-11-15T09:07:06.206Z,8.41
2017-11-15T09:08:08.681Z,8.46
2017-11-15T09:09:11.147Z,8.58
2017-11-15T09:10:13.622Z,8.52
2017-11-15T09:11:16.116Z,8.48
2017-11-15T09:12:18.622Z,8.49
2017-11-15T09:13:21.096Z,8.37
2017-11-15T09:14:23.576Z,8.40
2017-11-15T09:15:26.053Z,8.34
2017-11-15T09:16:28.544Z,8.42
2017-11-15T09:17:31.110Z,8.60
2017-11-15T09:18:33.586Z,8.61
2017-11-15T09:19:36.073Z,8.61
2017-11-15T09:20:38.554Z,8.66
2017-11-15T09:21:41.030Z,8.62
2017-11-15T09:22:43.516Z,8.65
2017-11-15T09:23:46.007Z,8.61
2017-11-15T09:24:48.489Z,8.48
2017-11-15T09:25:51.111Z,8.55
2017-11-15T09:26:53.581Z,8.61
2017-11-15T09:27:56.065Z,8.45
2017-11-15T09:28:58.532Z,8.37
2017-11-15T09:30:02.919Z,8.42
2017-11-15T09:31:05.376Z,8.49
2017-11-15T09:32:07.848Z,8.42
2017-11-15T09:33:10.353Z,8.55
2017-11-15T09:34:12.839Z,8.48
2017-11-15T09:35:15.306Z,8.29
2017-11-15T09:36:17.763Z,8.19
2017-11-15T09:37:20.236Z,8.17
2017-11-15T09:38:22.725Z,8.23
2017-11-15T09:39:25.202Z,8.25
2017-11-15T09:40:27.690Z,8.10
2017-11-15T09:41:30.169Z,8.15
2017-11-15T09:42:32.628Z,8.11
2017-11-15T09:43:35.133Z,8.18
2017-11-15T09:44:37.603Z,8.17
2017-11-15T09:45:40.068Z,8.24
2017-11-15T09:46:42.532Z,8.31
2017-11-15T09:47:45.012Z,8.35
2017-11-15T09:48:47.515Z,8.38
2017-11-15T09:49:49.987Z,8.38
2017-11-15T09:50:52.479Z,8.42
2017-11-15T09:51:54.939Z,8.41
2017-11-15T09:52:57.400Z,8.43
2017-11-15T09:53:59.888Z,8.51
2017-11-15T09:55:02.375Z,8.46
2017-11-15T09:56:04.837Z,8.42
2017-11-15T09:57:07.299Z,8.41
2017-11-15T09:58:09.764Z,8.48
2017-11-15T09:59:12.248Z,8.48
2017-11-15T10:00:14.725Z,8.47
2017-11-15T10:01:17.202Z,8.45
2017-11-15T10:02:19.684Z,8.50
2017-11-15T10:03:22.145Z,8.49
2017-11-15T10:04:24.656Z,8.47
2017-11-15T10:05:27.125Z,8.52
2017-11-15T10:06:29.588Z,8.55
2017-11-15T10:07:32.118Z,8.61
2017-11-15T10:08:34.613Z,8.79
2017-11-15T10:09:37.105Z,8.76
2017-11-15T10:10:39.581Z,8.85
2017-11-15T10:11:42.064Z,8.86
2017-11-15T10:12:44.535Z,8.90
2017-11-15T10:13:47.001Z,8.79
2017-11-15T10:14:49.488Z,8.91
2017-11-15T10:15:51.953Z,8.85
2017-11-15T10:17:08.779Z,8.72
2017-11-15T10:18:11.335Z,8.68
2017-11-15T10:19:13.831Z,8.63
2017-11-15T10:20:16.340Z,8.60
2017-11-15T10:21:19.331Z,8.77
2017-11-15T10:22:21.818Z,8.89
2017-11-15T10:23:24.378Z,8.89
2017-11-15T10:24:26.876Z,8.88
2017-11-15T10:25:29.405Z,8.83
2017-11-15T10:26:31.863Z,8.75
2017-11-15T10:27:34.325Z,8.84
2017-11-15T10:28:36.816Z,8.77
2017-11-15T10:29:39.507Z,8.78
2017-11-15T10:30:41.993Z,8.77
2017-11-15T10:31:44.457Z,8.66
2017-11-15T10:32:46.938Z,8.81
2017-11-15T10:33:49.411Z,8.74
2017-11-15T10:34:51.872Z,8.82
2017-11-15T10:35:54.359Z,8.86
2017-11-15T10:36:56.830Z,8.72
2017-11-15T10:37:59.307Z,8.59
2017-11-15T10:39:01.772Z,8.61
2017-11-15T10:40:04.232Z,8.60
2017-11-15T10:41:06.754Z,8.57
2017-11-15T10:42:09.231Z,8.54
2017-11-15T10:43:11.704Z,8.70
2017-11-15T10:44:14.181Z,8.77
2017-11-15T10:45:16.659Z,8.58
2017-11-15T10:46:19.149Z,8.57
2017-11-15T10:47:21.617Z,8.54
2017-11-15T10:48:24.076Z,8.69
2017-11-15T10:49:26.540Z,8.76
2017-11-15T10:50:28.996Z,8.72
2017-11-15T10:51:31.519Z,8.80
2017-11-15T10:52:33.984Z,8.80
2017-11-15T10:53:36.462Z,8.64
2017-11-15T10:54:38.938Z,8.73
2017-11-15T10:55:41.418Z,8.89
2017-11-15T10:56:43.926Z,8.99
2017-11-15T10:57:46.398Z,8.96
2017-11-15T10:58:48.899Z,8.85
2017-11-15T10:59:51.384Z,8.88
2017-11-15T11:00:53.846Z,8.78
2017-11-15T11:01:56.333Z,8.84
2017-11-15T11:02:58.804Z,8.94
2017-11-15T11:04:01.316Z,8.98
2017-11-15T11:05:03.788Z,9.02
2017-11-15T11:06:06.278Z,9.05
2017-11-15T11:07:08.765Z,8.96
2017-11-15T11:08:11.244Z,8.90
2017-11-15T11:09:13.721Z,9.00
2017-11-15T11:10:16.184Z,9.03
2017-11-15T11:11:18.662Z,8.92
2017-11-15T11:12:21.159Z,9.07
2017-11-15T11:13:23.629Z,8.97
2017-11-15T11:14:26.128Z,8.95
2017-11-15T11:15:28.588Z,9.10
2017-11-15T11:16:31.134Z,9.10
2017-11-15T11:17:33.635Z,9.17
2017-11-15T11:18:36.134Z,9.08
2017-11-15T11:19:38.614Z,9.29
2017-11-15T11:20:41.080Z,9.34
2017-11-15T11:21:43.555Z,9.29
2017-11-15T11:22:46.060Z,9.20
2017-11-15T11:23:48.569Z,9.32
2017-11-15T11:24:51.046Z,9.34
2017-11-15T11:25:53.524Z,9.29
2017-11-15T11:26:56.002Z,9.29
2017-11-15T11:27:58.489Z,9.37
2017-11-15T11:29:00.967Z,9.36
2017-11-15T11:30:03.454Z,9.44
2017-11-15T11:31:05.951Z,9.39
2017-11-15T11:32:08.416Z,9.30
2017-11-15T11:33:11.007Z,9.39
2017-11-15T11:34:13.476Z,9.29
2017-11-15T11:35:15.958Z,9.16
2017-11-15T11:36:18.442Z,9.38
2017-11-15T11:37:20.904Z,9.41
2017-11-15T11:38:23.419Z,9.39
2017-11-15T11:39:25.896Z,9.55
2017-11-15T11:40:28.355Z,9.37
2017-11-15T11:41:30.826Z,9.30
2017-11-15T11:42:33.301Z,9.17
2017-11-15T11:43:35.791Z,9.13
2017-11-15T11:44:38.305Z,9.14
2017-11-15T11:45:40.781Z,9.02
2017-11-15T11:46:43.260Z,8.94
2017-11-15T11:47:45.728Z,8.86
2017-11-15T11:48:48.270Z,8.89
2017-11-15T11:49:50.764Z,8.97
2017-11-15T11:50:53.232Z,9.02
2017-11-15T11:51:55.691Z,9.08
2017-11-15T11:52:58.167Z,9.10
2017-11-15T11:54:00.667Z,9.01
2017-11-15T11:55:03.133Z,9.08
2017-11-15T11:56:05.601Z,9.23
2017-11-15T11:57:08.082Z,9.10
2017-11-15T11:58:10.646Z,9.12
2017-11-15T11:59:13.146Z,9.25
2017-11-15T12:00:15.619Z,9.23
2017-11-15T12:01:18.354Z,9.21
2017-11-15T12:02:20.934Z,9.28
2017-11-15T12:03:23.465Z,9.44
2017-11-15T12:04:26.000Z,9.37
2017-11-15T12:05:28.485Z,9.36
2017-11-15T12:06:31.139Z,9.43
2017-11-15T12:07:33.608Z,9.42
2017-11-15T12:08:36.084Z,9.33
2017-11-15T12:09:38.577Z,9.44
2017-11-15T12:10:41.061Z,9.37
2017-11-15T12:11:43.541Z,9.30
2017-11-15T12:12:46.009Z,9.31
2017-11-15T12:13:48.515Z,9.34
2017-11-15T12:14:51.051Z,9.38
2017-11-15T12:15:53.520Z,9.50
2017-11-15T12:16:55.984Z,9.54
2017-11-15T12:17:58.634Z,9.49
2017-11-15T12:19:01.134Z,9.41
2017-11-15T12:20:03.624Z,9.51
2017-11-15T12:21:06.092Z,9.41
2017-11-15T12:22:08.560Z,9.43
2017-11-15T12:23:11.028Z,9.35
2017-11-15T12:24:13.492Z,9.36
2017-11-15T12:25:16.008Z,9.34
2017-11-15T12:26:18.467Z,9.45
2017-11-15T12:27:20.933Z,9.51
2017-11-15T12:28:23.419Z,9.42
2017-11-15T12:29:25.891Z,9.43
2017-11-15T12:30:28.388Z,9.54
2017-11-15T12:31:30.871Z,9.55
2017-11-15T12:32:33.332Z,9.53
2017-11-15T12:33:35.797Z,9.53
2017-11-15T12:34:38.270Z,9.41
2017-11-15T12:35:40.757Z,9.47
2017-11-15T12:36:43.238Z,9.45
2017-11-15T12:37:45.704Z,9.58
2017-11-15T12:38:48.171Z,9.62
2017-11-15T12:39:50.650Z,9.54
2017-11-15T12:40:53.150Z,9.66
2017-11-15T12:41:55.632Z,9.66
2017-11-15T12:42:58.097Z,9.68
2017-11-15T12:44:00.565Z,9.73
2017-11-15T12:45:03.034Z,9.69
2017-11-15T12:46:05.532Z,9.65
2017-11-15T12:47:08.029Z,9.74
2017-11-15T12:48:10.507Z,9.76
2017-11-15T12:49:12.986Z,9.81
2017-11-15T12:50:15.449Z,9.79
2017-11-15T12:51:17.950Z,9.82
2017-11-15T12:52:20.436Z,9.91
2017-11-15T12:53:22.903Z,9.89
2017-11-15T12:54:25.363Z,9.98
2017-11-15T12:55:27.825Z,9.94
2017-11-15T12:56:30.337Z,9.86
2017-11-15T12:57:32.820Z,10.02
2017-11-15T12:58:35.306Z,10.05
2017-11-15T12:59:37.808Z,10.18
2017-11-15T13:00:40.300Z,10.35
2017-11-15T13:01:42.796Z,10.39
2017-11-15T13:02:45.292Z,10.48
2017-11-15T13:03:47.777Z,10.44
2017-11-15T13:04:50.258Z,10.60
2017-11-15T13:05:52.720Z,10.70
2017-11-15T13:06:55.227Z,10.67
2017-11-15T13:07:57.718Z,10.66
2017-11-15T13:09:00.202Z,10.68
2017-11-15T13:10:02.697Z,10.63
2017-11-15T13:11:05.182Z,10.70
2017-11-15T13:12:07.676Z,10.73
2017-11-15T13:13:10.391Z,10.71
2017-11-15T13:14:12.896Z,10.72
2017-11-15T13:15:15.383Z,10.65
2017-11-15T13:16:17.867Z,10.57
2017-11-15T13:17:20.369Z,10.70
2017-11-15T13:18:22.863Z,10.98
2017-11-15T13:19:25.354Z,10.85
2017-11-15T13:20:27.842Z,10.94
2017-11-15T13:21:30.321Z,11.01
2017-11-15T13:22:32.812Z,11.10
2017-11-15T13:23:35.299Z,11.13
2017-11-15T13:24:37.778Z,11.20
2017-11-15T13:25:40.240Z,11.37
2017-11-15T13:26:42.722Z,11.24
2017-11-15T13:27:45.217Z,11.14
2017-11-15T13:28:47.692Z,11.12
2017-11-15T13:29:50.164Z,11.24
2017-11-15T13:30:52.647Z,11.16
2017-11-15T13:31:55.115Z,10.98
2017-11-15T13:32:57.604Z,11.03
2017-11-15T13:34:00.103Z,11.04
2017-11-15T13:35:02.608Z,10.96
2017-11-15T13:36:05.082Z,10.92
2017-11-15T13:37:07.573Z,10.95
2017-11-15T13:38:10.073Z,10.76
2017-11-15T13:39:12.557Z,10.61
2017-11-15T13:40:15.028Z,10.66
2017-11-15T13:41:17.496Z,10.63
2017-11-15T13:42:19.983Z,10.69
2017-11-15T13:43:22.472Z,10.74
2017-11-15T13:44:24.963Z,10.54
2017-11-15T13:45:27.447Z,10.59
2017-11-15T13:46:29.938Z,10.60
2017-11-15T13:47:32.412Z,10.71
2017-11-15T13:48:34.904Z,10.73
2017-11-15T13:49:37.381Z,10.66
2017-11-15T13:50:39.897Z,10.68